sensor_id;sensor_type;location;lat;lon;timestamp;P1;durP1;ratioP1;P2;durP2;ratioP2
65665;SDS011;52365;47.464;18.976;2023-04-03T00:00:02;6.47;;;4.87;;
65665;SDS011;52365;47.464;18.976;2023-04-03T00:00:39;6.60;;;4.95;;
65665;SDS011;52365;47.464;18.976;2023-04-03T00:01:16;6.12;;;4.80;;
65665;SDS011;52365;47.464;18.976;2023-04-03T00:01:52;6.40;;;4.90;;
65665;SDS011;52365;47.464;18.976;2023-04-03T00:02:28;6.80;;;5.00;;
65665;SDS011;52365;47.464;18.976;2023-04-03T00:03:05;6.85;;;5.22;;
65665;SDS011;52365;47.464;18.976;2023-04-03T00:03:41;7.07;;;5.32;;
65665;SDS011;52365;47.464;18.976;2023-04-03T00:04:17;5.93;;;4.80;;
65665;SDS011;52365;47.464;18.976;2023-04-03T00:04:53;6.28;;;5.07;;
65665;SDS011;52365;47.464;18.976;2023-04-03T00:05:30;6.65;;;5.07;;
65665;SDS011;52365;47.464;18.976;2023-04-03T00:06:06;6.62;;;4.82;;
65665;SDS011;52365;47.464;18.976;2023-04-03T00:06:44;6.43;;;4.68;;
65665;SDS011;52365;47.464;18.976;2023-04-03T00:07:20;6.45;;;5.10;;
65665;SDS011;52365;47.464;18.976;2023-04-03T00:07:56;6.07;;;4.80;;
65665;SDS011;52365;47.464;18.976;2023-04-03T00:08:32;6.12;;;4.82;;
65665;SDS011;52365;47.464;18.976;2023-04-03T00:09:08;5.62;;;4.62;;
65665;SDS011;52365;47.464;18.976;2023-04-03T00:09:44;6.45;;;4.62;;
65665;SDS011;52365;47.464;18.976;2023-04-03T00:10:20;11.50;;;7.95;;
65665;SDS011;52365;47.464;18.976;2023-04-03T00:10:57;12.20;;;8.80;;
65665;SDS011;52365;47.464;18.976;2023-04-03T00:11:33;28.92;;;20.08;;
65665;SDS011;52365;47.464;18.976;2023-04-03T00:12:09;9.93;;;7.68;;
65665;SDS011;52365;47.464;18.976;2023-04-03T00:12:46;7.97;;;5.97;;
65665;SDS011;52365;47.464;18.976;2023-04-03T00:13:22;7.15;;;5.70;;
65665;SDS011;52365;47.464;18.976;2023-04-03T00:13:59;8.95;;;5.90;;
65665;SDS011;52365;47.464;18.976;2023-04-03T00:14:35;6.28;;;4.82;;
65665;SDS011;52365;47.464;18.976;2023-04-03T00:15:11;6.78;;;4.90;;
65665;SDS011;52365;47.464;18.976;2023-04-03T00:15:47;6.62;;;5.00;;
65665;SDS011;52365;47.464;18.976;2023-04-03T00:16:24;6.60;;;5.25;;
65665;SDS011;52365;47.464;18.976;2023-04-03T00:17:00;6.35;;;5.03;;
65665;SDS011;52365;47.464;18.976;2023-04-03T00:17:36;5.85;;;4.60;;
65665;SDS011;52365;47.464;18.976;2023-04-03T00:18:12;5.80;;;4.72;;
65665;SDS011;52365;47.464;18.976;2023-04-03T00:18:48;6.72;;;5.03;;
65665;SDS011;52365;47.464;18.976;2023-04-03T00:19:24;6.47;;;5.10;;
65665;SDS011;52365;47.464;18.976;2023-04-03T00:20:00;6.70;;;5.20;;
65665;SDS011;52365;47.464;18.976;2023-04-03T00:20:36;6.95;;;4.85;;
65665;SDS011;52365;47.464;18.976;2023-04-03T00:21:13;6.12;;;4.78;;
65665;SDS011;52365;47.464;18.976;2023-04-03T00:21:50;6.35;;;4.93;;
65665;SDS011;52365;47.464;18.976;2023-04-03T00:22:26;7.20;;;5.10;;
65665;SDS011;52365;47.464;18.976;2023-04-03T00:23:04;5.80;;;4.62;;
65665;SDS011;52365;47.464;18.976;2023-04-03T00:23:40;6.25;;;4.90;;
65665;SDS011;52365;47.464;18.976;2023-04-03T00:24:16;6.70;;;4.90;;
65665;SDS011;52365;47.464;18.976;2023-04-03T00:24:52;5.93;;;4.50;;
65665;SDS011;52365;47.464;18.976;2023-04-03T00:25:28;6.90;;;4.97;;
65665;SDS011;52365;47.464;18.976;2023-04-03T00:26:05;6.32;;;4.80;;
65665;SDS011;52365;47.464;18.976;2023-04-03T00:26:41;5.68;;;4.72;;
65665;SDS011;52365;47.464;18.976;2023-04-03T00:27:17;5.72;;;4.82;;
65665;SDS011;52365;47.464;18.976;2023-04-03T00:27:53;6.55;;;4.62;;
65665;SDS011;52365;47.464;18.976;2023-04-03T00:28:29;6.50;;;4.87;;
65665;SDS011;52365;47.464;18.976;2023-04-03T00:29:05;6.12;;;4.70;;
65665;SDS011;52365;47.464;18.976;2023-04-03T00:29:41;7.10;;;4.95;;
65665;SDS011;52365;47.464;18.976;2023-04-03T00:30:18;6.12;;;4.75;;
65665;SDS011;52365;47.464;18.976;2023-04-03T00:30:56;6.62;;;4.70;;
65665;SDS011;52365;47.464;18.976;2023-04-03T00:31:32;6.55;;;4.62;;
65665;SDS011;52365;47.464;18.976;2023-04-03T00:32:08;5.97;;;4.60;;
65665;SDS011;52365;47.464;18.976;2023-04-03T00:32:45;6.00;;;4.90;;
65665;SDS011;52365;47.464;18.976;2023-04-03T00:33:23;6.62;;;5.00;;
65665;SDS011;52365;47.464;18.976;2023-04-03T00:34:00;6.20;;;4.87;;
65665;SDS011;52365;47.464;18.976;2023-04-03T00:34:36;5.72;;;4.43;;
65665;SDS011;52365;47.464;18.976;2023-04-03T00:35:12;6.35;;;4.72;;
65665;SDS011;52365;47.464;18.976;2023-04-03T00:35:51;6.20;;;4.97;;
65665;SDS011;52365;47.464;18.976;2023-04-03T00:36:27;7.03;;;4.95;;
65665;SDS011;52365;47.464;18.976;2023-04-03T00:37:03;6.10;;;4.70;;
65665;SDS011;52365;47.464;18.976;2023-04-03T00:37:39;6.53;;;5.00;;
65665;SDS011;52365;47.464;18.976;2023-04-03T00:38:16;6.37;;;4.47;;
65665;SDS011;52365;47.464;18.976;2023-04-03T00:38:52;5.95;;;4.85;;
65665;SDS011;52365;47.464;18.976;2023-04-03T00:39:30;6.32;;;4.78;;
65665;SDS011;52365;47.464;18.976;2023-04-03T00:40:06;6.68;;;5.10;;
65665;SDS011;52365;47.464;18.976;2023-04-03T00:40:44;5.90;;;4.70;;
65665;SDS011;52365;47.464;18.976;2023-04-03T00:41:23;6.40;;;4.62;;
65665;SDS011;52365;47.464;18.976;2023-04-03T00:41:59;5.70;;;4.70;;
65665;SDS011;52365;47.464;18.976;2023-04-03T00:42:36;6.70;;;4.78;;
65665;SDS011;52365;47.464;18.976;2023-04-03T00:43:20;6.45;;;4.75;;
65665;SDS011;52365;47.464;18.976;2023-04-03T00:43:58;7.22;;;5.20;;
65665;SDS011;52365;47.464;18.976;2023-04-03T00:45:47;6.40;;;4.65;;
65665;SDS011;52365;47.464;18.976;2023-04-03T00:46:25;5.97;;;4.70;;
65665;SDS011;52365;47.464;18.976;2023-04-03T00:47:02;7.10;;;4.55;;
65665;SDS011;52365;47.464;18.976;2023-04-03T00:47:41;7.30;;;5.32;;
65665;SDS011;52365;47.464;18.976;2023-04-03T00:48:19;5.80;;;4.62;;
65665;SDS011;52365;47.464;18.976;2023-04-03T00:48:58;7.50;;;4.95;;
65665;SDS011;52365;47.464;18.976;2023-04-03T00:49:35;6.95;;;5.15;;
65665;SDS011;52365;47.464;18.976;2023-04-03T00:50:12;6.10;;;4.72;;
65665;SDS011;52365;47.464;18.976;2023-04-03T00:50:48;6.47;;;4.85;;
65665;SDS011;52365;47.464;18.976;2023-04-03T00:51:26;6.70;;;4.90;;
65665;SDS011;52365;47.464;18.976;2023-04-03T00:52:02;6.60;;;4.80;;
65665;SDS011;52365;47.464;18.976;2023-04-03T00:52:42;6.47;;;4.78;;
65665;SDS011;52365;47.464;18.976;2023-04-03T00:53:23;6.03;;;4.65;;
65665;SDS011;52365;47.464;18.976;2023-04-03T00:54:12;6.53;;;4.82;;
65665;SDS011;52365;47.464;18.976;2023-04-03T00:54:49;5.90;;;4.43;;
65665;SDS011;52365;47.464;18.976;2023-04-03T00:55:29;6.43;;;4.70;;
65665;SDS011;52365;47.464;18.976;2023-04-03T00:56:06;5.80;;;4.72;;
65665;SDS011;52365;47.464;18.976;2023-04-03T00:56:45;6.32;;;4.80;;
65665;SDS011;52365;47.464;18.976;2023-04-03T00:57:22;5.93;;;4.70;;
65665;SDS011;52365;47.464;18.976;2023-04-03T00:57:58;6.10;;;4.45;;
65665;SDS011;52365;47.464;18.976;2023-04-03T00:59:19;5.45;;;4.50;;
65665;SDS011;52365;47.464;18.976;2023-04-03T00:59:45;5.62;;;4.37;;
65665;SDS011;52365;47.464;18.976;2023-04-03T01:00:24;6.85;;;5.00;;
65665;SDS011;52365;47.464;18.976;2023-04-03T01:01:03;6.30;;;4.57;;
65665;SDS011;52365;47.464;18.976;2023-04-03T01:01:42;6.07;;;4.37;;
65665;SDS011;52365;47.464;18.976;2023-04-03T01:02:19;6.10;;;4.53;;
65665;SDS011;52365;47.464;18.976;2023-04-03T01:02:55;6.07;;;4.50;;
65665;SDS011;52365;47.464;18.976;2023-04-03T01:03:32;5.55;;;4.55;;
65665;SDS011;52365;47.464;18.976;2023-04-03T01:05:07;6.20;;;4.53;;
65665;SDS011;52365;47.464;18.976;2023-04-03T01:05:44;6.30;;;4.50;;
65665;SDS011;52365;47.464;18.976;2023-04-03T01:06:21;6.03;;;4.47;;
65665;SDS011;52365;47.464;18.976;2023-04-03T01:07:03;5.85;;;4.15;;
65665;SDS011;52365;47.464;18.976;2023-04-03T01:07:42;5.65;;;4.50;;
65665;SDS011;52365;47.464;18.976;2023-04-03T01:08:19;5.95;;;4.70;;
65665;SDS011;52365;47.464;18.976;2023-04-03T01:08:55;5.15;;;4.40;;
65665;SDS011;52365;47.464;18.976;2023-04-03T01:09:31;6.03;;;4.50;;
65665;SDS011;52365;47.464;18.976;2023-04-03T01:10:10;5.75;;;4.43;;
65665;SDS011;52365;47.464;18.976;2023-04-03T01:10:49;5.07;;;4.10;;
65665;SDS011;52365;47.464;18.976;2023-04-03T01:11:26;6.03;;;4.22;;
65665;SDS011;52365;47.464;18.976;2023-04-03T01:12:57;6.10;;;4.55;;
65665;SDS011;52365;47.464;18.976;2023-04-03T01:13:35;5.35;;;4.12;;
65665;SDS011;52365;47.464;18.976;2023-04-03T01:14:11;5.90;;;4.28;;
65665;SDS011;52365;47.464;18.976;2023-04-03T01:14:48;5.65;;;4.25;;
65665;SDS011;52365;47.464;18.976;2023-04-03T01:15:26;5.55;;;4.00;;
65665;SDS011;52365;47.464;18.976;2023-04-03T01:16:05;5.55;;;4.10;;
65665;SDS011;52365;47.464;18.976;2023-04-03T01:16:42;6.53;;;4.68;;
65665;SDS011;52365;47.464;18.976;2023-04-03T01:18:16;5.65;;;4.05;;
65665;SDS011;52365;47.464;18.976;2023-04-03T01:18:52;5.10;;;4.20;;
65665;SDS011;52365;47.464;18.976;2023-04-03T01:19:28;4.93;;;4.00;;
65665;SDS011;52365;47.464;18.976;2023-04-03T01:20:59;6.07;;;4.15;;
65665;SDS011;52365;47.464;18.976;2023-04-03T01:24:07;6.82;;;4.47;;
65665;SDS011;52365;47.464;18.976;2023-04-03T01:24:38;6.22;;;4.70;;
65665;SDS011;52365;47.464;18.976;2023-04-03T01:25:14;5.55;;;4.07;;
65665;SDS011;52365;47.464;18.976;2023-04-03T01:25:52;5.62;;;4.28;;
65665;SDS011;52365;47.464;18.976;2023-04-03T01:26:29;5.95;;;4.45;;
65665;SDS011;52365;47.464;18.976;2023-04-03T01:27:06;4.85;;;3.97;;
65665;SDS011;52365;47.464;18.976;2023-04-03T01:27:45;5.50;;;4.20;;
65665;SDS011;52365;47.464;18.976;2023-04-03T01:28:26;5.45;;;4.10;;
65665;SDS011;52365;47.464;18.976;2023-04-03T01:29:05;5.45;;;4.37;;
65665;SDS011;52365;47.464;18.976;2023-04-03T01:29:41;5.70;;;4.32;;
65665;SDS011;52365;47.464;18.976;2023-04-03T01:30:19;5.53;;;4.22;;
65665;SDS011;52365;47.464;18.976;2023-04-03T01:31:48;4.87;;;3.97;;
65665;SDS011;52365;47.464;18.976;2023-04-03T01:32:29;5.37;;;4.30;;
65665;SDS011;52365;47.464;18.976;2023-04-03T01:33:05;6.05;;;4.22;;
65665;SDS011;52365;47.464;18.976;2023-04-03T01:33:41;5.62;;;4.10;;
65665;SDS011;52365;47.464;18.976;2023-04-03T01:34:18;5.25;;;4.03;;
65665;SDS011;52365;47.464;18.976;2023-04-03T01:34:54;5.87;;;4.22;;
65665;SDS011;52365;47.464;18.976;2023-04-03T01:35:30;5.18;;;3.85;;
65665;SDS011;52365;47.464;18.976;2023-04-03T01:36:07;5.28;;;4.00;;
65665;SDS011;52365;47.464;18.976;2023-04-03T01:36:44;5.90;;;4.20;;
65665;SDS011;52365;47.464;18.976;2023-04-03T01:37:20;5.07;;;3.90;;
65665;SDS011;52365;47.464;18.976;2023-04-03T01:37:56;6.15;;;4.10;;
65665;SDS011;52365;47.464;18.976;2023-04-03T01:38:32;5.68;;;4.20;;
65665;SDS011;52365;47.464;18.976;2023-04-03T01:39:08;5.18;;;3.87;;
65665;SDS011;52365;47.464;18.976;2023-04-03T01:39:45;5.75;;;4.10;;
65665;SDS011;52365;47.464;18.976;2023-04-03T01:40:21;5.25;;;3.85;;
65665;SDS011;52365;47.464;18.976;2023-04-03T01:40:57;5.07;;;3.90;;
65665;SDS011;52365;47.464;18.976;2023-04-03T01:41:33;5.47;;;4.00;;
65665;SDS011;52365;47.464;18.976;2023-04-03T01:42:09;4.68;;;3.70;;
65665;SDS011;52365;47.464;18.976;2023-04-03T01:42:47;5.90;;;4.00;;
65665;SDS011;52365;47.464;18.976;2023-04-03T01:43:23;5.85;;;4.03;;
65665;SDS011;52365;47.464;18.976;2023-04-03T01:43:59;4.57;;;3.80;;
65665;SDS011;52365;47.464;18.976;2023-04-03T01:44:35;5.80;;;3.80;;
65665;SDS011;52365;47.464;18.976;2023-04-03T01:45:11;5.15;;;3.97;;
65665;SDS011;52365;47.464;18.976;2023-04-03T01:45:47;5.78;;;4.10;;
65665;SDS011;52365;47.464;18.976;2023-04-03T01:46:24;5.28;;;4.00;;
65665;SDS011;52365;47.464;18.976;2023-04-03T01:47:01;5.05;;;3.78;;
65665;SDS011;52365;47.464;18.976;2023-04-03T01:47:37;6.12;;;3.80;;
65665;SDS011;52365;47.464;18.976;2023-04-03T01:48:13;5.47;;;3.90;;
65665;SDS011;52365;47.464;18.976;2023-04-03T01:48:49;5.47;;;3.65;;
65665;SDS011;52365;47.464;18.976;2023-04-03T01:49:25;4.78;;;3.70;;
65665;SDS011;52365;47.464;18.976;2023-04-03T01:50:01;4.97;;;3.50;;
65665;SDS011;52365;47.464;18.976;2023-04-03T01:50:37;5.55;;;3.80;;
65665;SDS011;52365;47.464;18.976;2023-04-03T01:51:14;4.80;;;3.80;;
65665;SDS011;52365;47.464;18.976;2023-04-03T01:51:50;4.80;;;3.50;;
65665;SDS011;52365;47.464;18.976;2023-04-03T01:52:26;4.87;;;3.70;;
65665;SDS011;52365;47.464;18.976;2023-04-03T01:53:02;4.82;;;3.90;;
65665;SDS011;52365;47.464;18.976;2023-04-03T01:53:38;4.85;;;3.62;;
65665;SDS011;52365;47.464;18.976;2023-04-03T01:54:14;4.40;;;3.45;;
65665;SDS011;52365;47.464;18.976;2023-04-03T01:54:50;5.20;;;4.00;;
65665;SDS011;52365;47.464;18.976;2023-04-03T01:55:26;4.62;;;3.62;;
65665;SDS011;52365;47.464;18.976;2023-04-03T01:56:03;4.68;;;3.75;;
65665;SDS011;52365;47.464;18.976;2023-04-03T01:56:39;5.93;;;3.72;;
65665;SDS011;52365;47.464;18.976;2023-04-03T01:57:15;5.28;;;3.60;;
65665;SDS011;52365;47.464;18.976;2023-04-03T01:57:52;4.95;;;3.60;;
65665;SDS011;52365;47.464;18.976;2023-04-03T01:58:28;5.37;;;3.72;;
65665;SDS011;52365;47.464;18.976;2023-04-03T01:59:04;4.47;;;3.50;;
65665;SDS011;52365;47.464;18.976;2023-04-03T01:59:40;4.65;;;3.53;;
65665;SDS011;52365;47.464;18.976;2023-04-03T02:00:16;4.65;;;3.55;;
65665;SDS011;52365;47.464;18.976;2023-04-03T02:00:52;5.37;;;3.62;;
65665;SDS011;52365;47.464;18.976;2023-04-03T02:01:29;5.05;;;3.50;;
65665;SDS011;52365;47.464;18.976;2023-04-03T02:02:05;5.70;;;3.55;;
65665;SDS011;52365;47.464;18.976;2023-04-03T02:02:41;5.18;;;3.60;;
65665;SDS011;52365;47.464;18.976;2023-04-03T02:03:17;4.60;;;3.62;;
65665;SDS011;52365;47.464;18.976;2023-04-03T02:03:54;4.53;;;3.40;;
65665;SDS011;52365;47.464;18.976;2023-04-03T02:04:30;4.65;;;3.53;;
65665;SDS011;52365;47.464;18.976;2023-04-03T02:05:06;4.37;;;3.30;;
65665;SDS011;52365;47.464;18.976;2023-04-03T02:05:43;4.40;;;3.50;;
65665;SDS011;52365;47.464;18.976;2023-04-03T02:06:19;4.90;;;3.62;;
65665;SDS011;52365;47.464;18.976;2023-04-03T02:06:55;4.47;;;3.42;;
65665;SDS011;52365;47.464;18.976;2023-04-03T02:07:31;5.30;;;3.72;;
65665;SDS011;52365;47.464;18.976;2023-04-03T02:08:07;4.50;;;3.60;;
65665;SDS011;52365;47.464;18.976;2023-04-03T02:08:43;4.87;;;3.72;;
65665;SDS011;52365;47.464;18.976;2023-04-03T02:09:19;4.80;;;3.60;;
65665;SDS011;52365;47.464;18.976;2023-04-03T02:09:55;4.43;;;3.45;;
65665;SDS011;52365;47.464;18.976;2023-04-03T02:10:31;4.55;;;3.40;;
65665;SDS011;52365;47.464;18.976;2023-04-03T02:11:07;4.47;;;3.60;;
65665;SDS011;52365;47.464;18.976;2023-04-03T02:11:43;4.65;;;3.40;;
65665;SDS011;52365;47.464;18.976;2023-04-03T02:12:19;4.45;;;3.50;;
65665;SDS011;52365;47.464;18.976;2023-04-03T02:12:55;4.43;;;3.50;;
65665;SDS011;52365;47.464;18.976;2023-04-03T02:13:32;4.50;;;3.60;;
65665;SDS011;52365;47.464;18.976;2023-04-03T02:14:08;4.57;;;3.37;;
65665;SDS011;52365;47.464;18.976;2023-04-03T02:14:44;3.90;;;3.30;;
65665;SDS011;52365;47.464;18.976;2023-04-03T02:15:20;4.68;;;3.53;;
65665;SDS011;52365;47.464;18.976;2023-04-03T02:15:57;4.37;;;3.53;;
65665;SDS011;52365;47.464;18.976;2023-04-03T02:16:33;5.10;;;3.50;;
65665;SDS011;52365;47.464;18.976;2023-04-03T02:17:09;4.78;;;3.30;;
65665;SDS011;52365;47.464;18.976;2023-04-03T02:17:45;4.90;;;3.45;;
65665;SDS011;52365;47.464;18.976;2023-04-03T02:18:21;4.70;;;3.67;;
65665;SDS011;52365;47.464;18.976;2023-04-03T02:18:57;4.75;;;3.60;;
65665;SDS011;52365;47.464;18.976;2023-04-03T02:19:33;4.62;;;3.50;;
65665;SDS011;52365;47.464;18.976;2023-04-03T02:20:11;4.33;;;3.50;;
65665;SDS011;52365;47.464;18.976;2023-04-03T02:20:47;4.70;;;3.50;;
65665;SDS011;52365;47.464;18.976;2023-04-03T02:21:23;5.47;;;3.45;;
65665;SDS011;52365;47.464;18.976;2023-04-03T02:21:59;4.55;;;3.40;;
65665;SDS011;52365;47.464;18.976;2023-04-03T02:22:35;4.18;;;3.30;;
65665;SDS011;52365;47.464;18.976;2023-04-03T02:23:12;4.00;;;3.28;;
65665;SDS011;52365;47.464;18.976;2023-04-03T02:23:48;4.37;;;3.20;;
65665;SDS011;52365;47.464;18.976;2023-04-03T02:24:24;4.85;;;3.35;;
65665;SDS011;52365;47.464;18.976;2023-04-03T02:25:00;4.87;;;3.70;;
65665;SDS011;52365;47.464;18.976;2023-04-03T02:25:36;4.00;;;3.17;;
65665;SDS011;52365;47.464;18.976;2023-04-03T02:26:13;4.82;;;3.42;;
65665;SDS011;52365;47.464;18.976;2023-04-03T02:26:51;3.92;;;3.17;;
65665;SDS011;52365;47.464;18.976;2023-04-03T02:27:27;4.45;;;3.20;;
65665;SDS011;52365;47.464;18.976;2023-04-03T02:28:03;4.53;;;3.05;;
65665;SDS011;52365;47.464;18.976;2023-04-03T02:28:39;4.28;;;3.55;;
65665;SDS011;52365;47.464;18.976;2023-04-03T02:29:16;4.47;;;3.25;;
65665;SDS011;52365;47.464;18.976;2023-04-03T02:29:52;4.75;;;3.35;;
65665;SDS011;52365;47.464;18.976;2023-04-03T02:30:29;4.40;;;3.28;;
65665;SDS011;52365;47.464;18.976;2023-04-03T02:31:07;4.05;;;3.17;;
65665;SDS011;52365;47.464;18.976;2023-04-03T02:31:44;4.05;;;3.05;;
65665;SDS011;52365;47.464;18.976;2023-04-03T02:32:20;4.30;;;3.30;;
65665;SDS011;52365;47.464;18.976;2023-04-03T02:32:56;4.37;;;3.40;;
65665;SDS011;52365;47.464;18.976;2023-04-03T02:33:33;4.22;;;3.10;;
65665;SDS011;52365;47.464;18.976;2023-04-03T02:34:12;5.18;;;3.33;;
65665;SDS011;52365;47.464;18.976;2023-04-03T02:34:48;4.50;;;3.30;;
65665;SDS011;52365;47.464;18.976;2023-04-03T02:35:24;4.10;;;3.25;;
65665;SDS011;52365;47.464;18.976;2023-04-03T02:36:00;4.60;;;3.40;;
65665;SDS011;52365;47.464;18.976;2023-04-03T02:36:36;4.30;;;3.33;;
65665;SDS011;52365;47.464;18.976;2023-04-03T02:37:12;4.28;;;3.30;;
65665;SDS011;52365;47.464;18.976;2023-04-03T02:37:48;3.90;;;2.95;;
65665;SDS011;52365;47.464;18.976;2023-04-03T02:38:25;4.03;;;3.10;;
65665;SDS011;52365;47.464;18.976;2023-04-03T02:39:01;4.75;;;3.50;;
65665;SDS011;52365;47.464;18.976;2023-04-03T02:39:38;4.28;;;3.25;;
65665;SDS011;52365;47.464;18.976;2023-04-03T02:40:14;4.97;;;3.30;;
65665;SDS011;52365;47.464;18.976;2023-04-03T02:40:50;4.25;;;3.20;;
65665;SDS011;52365;47.464;18.976;2023-04-03T02:41:27;4.62;;;3.33;;
65665;SDS011;52365;47.464;18.976;2023-04-03T02:42:09;4.22;;;3.12;;
65665;SDS011;52365;47.464;18.976;2023-04-03T02:42:46;4.53;;;3.40;;
65665;SDS011;52365;47.464;18.976;2023-04-03T02:43:22;3.95;;;3.15;;
65665;SDS011;52365;47.464;18.976;2023-04-03T02:43:58;4.80;;;3.30;;
65665;SDS011;52365;47.464;18.976;2023-04-03T02:44:34;4.50;;;3.20;;
65665;SDS011;52365;47.464;18.976;2023-04-03T02:45:11;3.95;;;3.10;;
65665;SDS011;52365;47.464;18.976;2023-04-03T02:45:47;4.10;;;3.00;;
65665;SDS011;52365;47.464;18.976;2023-04-03T02:46:23;4.30;;;3.33;;
65665;SDS011;52365;47.464;18.976;2023-04-03T02:46:59;4.85;;;3.50;;
65665;SDS011;52365;47.464;18.976;2023-04-03T02:47:35;4.35;;;3.20;;
65665;SDS011;52365;47.464;18.976;2023-04-03T02:48:11;4.57;;;3.10;;
65665;SDS011;52365;47.464;18.976;2023-04-03T02:48:47;4.32;;;3.28;;
65665;SDS011;52365;47.464;18.976;2023-04-03T02:49:23;4.40;;;3.22;;
65665;SDS011;52365;47.464;18.976;2023-04-03T02:50:00;4.22;;;3.20;;
65665;SDS011;52365;47.464;18.976;2023-04-03T02:50:36;4.55;;;2.97;;
65665;SDS011;52365;47.464;18.976;2023-04-03T02:51:12;5.15;;;3.33;;
65665;SDS011;52365;47.464;18.976;2023-04-03T02:51:48;4.62;;;3.20;;
65665;SDS011;52365;47.464;18.976;2023-04-03T02:52:24;4.03;;;2.97;;
65665;SDS011;52365;47.464;18.976;2023-04-03T02:53:00;3.87;;;3.20;;
65665;SDS011;52365;47.464;18.976;2023-04-03T02:53:36;4.90;;;3.35;;
65665;SDS011;52365;47.464;18.976;2023-04-03T02:54:12;4.35;;;3.15;;
65665;SDS011;52365;47.464;18.976;2023-04-03T02:54:49;4.53;;;3.33;;
65665;SDS011;52365;47.464;18.976;2023-04-03T02:55:25;4.57;;;3.20;;
65665;SDS011;52365;47.464;18.976;2023-04-03T02:56:01;3.78;;;3.00;;
65665;SDS011;52365;47.464;18.976;2023-04-03T02:56:37;4.43;;;3.30;;
65665;SDS011;52365;47.464;18.976;2023-04-03T02:57:14;4.45;;;3.20;;
65665;SDS011;52365;47.464;18.976;2023-04-03T02:57:50;4.03;;;3.15;;
65665;SDS011;52365;47.464;18.976;2023-04-03T02:58:26;4.00;;;3.00;;
65665;SDS011;52365;47.464;18.976;2023-04-03T02:59:02;4.40;;;3.25;;
65665;SDS011;52365;47.464;18.976;2023-04-03T02:59:39;4.10;;;3.10;;
65665;SDS011;52365;47.464;18.976;2023-04-03T03:00:16;3.97;;;3.10;;
65665;SDS011;52365;47.464;18.976;2023-04-03T03:00:53;3.43;;;2.83;;
65665;SDS011;52365;47.464;18.976;2023-04-03T03:01:29;3.47;;;2.80;;
65665;SDS011;52365;47.464;18.976;2023-04-03T03:02:07;3.95;;;3.03;;
65665;SDS011;52365;47.464;18.976;2023-04-03T03:02:44;4.03;;;3.05;;
65665;SDS011;52365;47.464;18.976;2023-04-03T03:03:20;4.45;;;3.30;;
65665;SDS011;52365;47.464;18.976;2023-04-03T03:03:56;3.87;;;3.00;;
65665;SDS011;52365;47.464;18.976;2023-04-03T03:04:32;4.78;;;2.90;;
65665;SDS011;52365;47.464;18.976;2023-04-03T03:05:08;4.68;;;2.92;;
65665;SDS011;52365;47.464;18.976;2023-04-03T03:05:44;3.78;;;2.80;;
65665;SDS011;52365;47.464;18.976;2023-04-03T03:06:20;3.80;;;2.75;;
65665;SDS011;52365;47.464;18.976;2023-04-03T03:06:56;4.18;;;3.05;;
65665;SDS011;52365;47.464;18.976;2023-04-03T03:07:32;3.65;;;2.90;;
65665;SDS011;52365;47.464;18.976;2023-04-03T03:08:09;4.40;;;3.10;;
65665;SDS011;52365;47.464;18.976;2023-04-03T03:08:45;4.60;;;3.10;;
65665;SDS011;52365;47.464;18.976;2023-04-03T03:09:21;3.60;;;2.73;;
65665;SDS011;52365;47.464;18.976;2023-04-03T03:09:57;4.53;;;2.90;;
65665;SDS011;52365;47.464;18.976;2023-04-03T03:10:33;3.85;;;2.85;;
65665;SDS011;52365;47.464;18.976;2023-04-03T03:11:09;4.20;;;2.90;;
65665;SDS011;52365;47.464;18.976;2023-04-03T03:11:46;4.25;;;3.17;;
65665;SDS011;52365;47.464;18.976;2023-04-03T03:12:23;4.90;;;3.37;;
65665;SDS011;52365;47.464;18.976;2023-04-03T03:13:00;4.15;;;3.15;;
65665;SDS011;52365;47.464;18.976;2023-04-03T03:13:36;4.03;;;2.75;;
65665;SDS011;52365;47.464;18.976;2023-04-03T03:14:12;4.82;;;3.20;;
65665;SDS011;52365;47.464;18.976;2023-04-03T03:14:49;3.87;;;2.97;;
65665;SDS011;52365;47.464;18.976;2023-04-03T03:15:25;3.60;;;2.78;;
65665;SDS011;52365;47.464;18.976;2023-04-03T03:16:01;4.55;;;3.10;;
65665;SDS011;52365;47.464;18.976;2023-04-03T03:16:37;3.80;;;2.85;;
65665;SDS011;52365;47.464;18.976;2023-04-03T03:17:13;4.57;;;3.05;;
65665;SDS011;52365;47.464;18.976;2023-04-03T03:17:49;4.30;;;3.33;;
65665;SDS011;52365;47.464;18.976;2023-04-03T03:18:26;4.32;;;3.10;;
65665;SDS011;52365;47.464;18.976;2023-04-03T03:19:02;4.20;;;3.10;;
65665;SDS011;52365;47.464;18.976;2023-04-03T03:19:38;4.18;;;3.03;;
65665;SDS011;52365;47.464;18.976;2023-04-03T03:20:14;4.60;;;3.17;;
65665;SDS011;52365;47.464;18.976;2023-04-03T03:20:55;4.87;;;3.20;;
65665;SDS011;52365;47.464;18.976;2023-04-03T03:21:32;4.55;;;3.20;;
65665;SDS011;52365;47.464;18.976;2023-04-03T03:22:08;3.75;;;3.10;;
65665;SDS011;52365;47.464;18.976;2023-04-03T03:22:44;3.97;;;2.95;;
65665;SDS011;52365;47.464;18.976;2023-04-03T03:23:21;4.43;;;3.15;;
65665;SDS011;52365;47.464;18.976;2023-04-03T03:23:58;4.82;;;3.05;;
65665;SDS011;52365;47.464;18.976;2023-04-03T03:24:34;4.68;;;3.08;;
65665;SDS011;52365;47.464;18.976;2023-04-03T03:25:10;3.87;;;3.20;;
65665;SDS011;52365;47.464;18.976;2023-04-03T03:25:46;4.62;;;3.12;;
65665;SDS011;52365;47.464;18.976;2023-04-03T03:26:22;3.80;;;2.80;;
65665;SDS011;52365;47.464;18.976;2023-04-03T03:26:59;3.67;;;3.10;;
65665;SDS011;52365;47.464;18.976;2023-04-03T03:27:35;4.60;;;3.20;;
65665;SDS011;52365;47.464;18.976;2023-04-03T03:28:11;4.00;;;3.08;;
65665;SDS011;52365;47.464;18.976;2023-04-03T03:28:47;4.22;;;3.30;;
65665;SDS011;52365;47.464;18.976;2023-04-03T03:29:23;4.10;;;3.17;;
65665;SDS011;52365;47.464;18.976;2023-04-03T03:30:00;4.40;;;3.22;;
65665;SDS011;52365;47.464;18.976;2023-04-03T03:30:36;4.70;;;3.33;;
65665;SDS011;52365;47.464;18.976;2023-04-03T03:31:12;4.65;;;3.30;;
65665;SDS011;52365;47.464;18.976;2023-04-03T03:31:48;4.68;;;3.35;;
65665;SDS011;52365;47.464;18.976;2023-04-03T03:32:24;4.30;;;3.17;;
65665;SDS011;52365;47.464;18.976;2023-04-03T03:33:00;4.20;;;3.28;;
65665;SDS011;52365;47.464;18.976;2023-04-03T03:33:36;3.97;;;3.00;;
65665;SDS011;52365;47.464;18.976;2023-04-03T03:34:12;4.87;;;3.35;;
65665;SDS011;52365;47.464;18.976;2023-04-03T03:34:49;4.68;;;3.47;;
65665;SDS011;52365;47.464;18.976;2023-04-03T03:35:25;4.75;;;3.37;;
65665;SDS011;52365;47.464;18.976;2023-04-03T03:36:01;4.40;;;3.47;;
65665;SDS011;52365;47.464;18.976;2023-04-03T03:36:37;4.55;;;3.40;;
65665;SDS011;52365;47.464;18.976;2023-04-03T03:37:13;4.50;;;3.20;;
65665;SDS011;52365;47.464;18.976;2023-04-03T03:37:49;4.32;;;3.22;;
65665;SDS011;52365;47.464;18.976;2023-04-03T03:38:25;5.50;;;3.58;;
65665;SDS011;52365;47.464;18.976;2023-04-03T03:39:01;3.90;;;3.10;;
65665;SDS011;52365;47.464;18.976;2023-04-03T03:39:38;4.22;;;3.40;;
65665;SDS011;52365;47.464;18.976;2023-04-03T03:40:14;4.87;;;3.40;;
65665;SDS011;52365;47.464;18.976;2023-04-03T03:40:50;5.07;;;3.30;;
65665;SDS011;52365;47.464;18.976;2023-04-03T03:41:27;4.90;;;3.40;;
65665;SDS011;52365;47.464;18.976;2023-04-03T03:42:04;4.03;;;3.17;;
65665;SDS011;52365;47.464;18.976;2023-04-03T03:42:40;4.65;;;3.20;;
65665;SDS011;52365;47.464;18.976;2023-04-03T03:43:16;4.22;;;3.25;;
65665;SDS011;52365;47.464;18.976;2023-04-03T03:43:53;4.37;;;3.30;;
65665;SDS011;52365;47.464;18.976;2023-04-03T03:44:29;4.30;;;3.40;;
65665;SDS011;52365;47.464;18.976;2023-04-03T03:45:05;4.25;;;3.40;;
65665;SDS011;52365;47.464;18.976;2023-04-03T03:45:42;4.37;;;3.20;;